sensor_id;sensor_type;location;lat;lon;timestamp;temperature;humidity
27072;DHT22;14613;46.308;25.288;2023-02-28T00:00:21;6.50;89.70
27072;DHT22;14613;46.308;25.288;2023-02-28T00:02:47;6.50;88.90
27072;DHT22;14613;46.308;25.288;2023-02-28T00:05:16;6.50;88.90
27072;DHT22;14613;46.308;25.288;2023-02-28T00:07:43;6.50;88.90
27072;DHT22;14613;46.308;25.288;2023-02-28T00:10:14;6.50;88.90
27072;DHT22;14613;46.308;25.288;2023-02-28T00:12:40;6.50;88.90
27072;DHT22;14613;46.308;25.288;2023-02-28T00:15:10;6.60;88.90
27072;DHT22;14613;46.308;25.288;2023-02-28T00:17:37;6.60;88.80
27072;DHT22;14613;46.308;25.288;2023-02-28T00:20:04;6.50;88.80
27072;DHT22;14613;46.308;25.288;2023-02-28T00:22:33;6.50;88.70
27072;DHT22;14613;46.308;25.288;2023-02-28T00:24:59;6.50;88.80
27072;DHT22;14613;46.308;25.288;2023-02-28T00:27:25;6.50;88.80
27072;DHT22;14613;46.308;25.288;2023-02-28T00:29:50;6.50;88.70
27072;DHT22;14613;46.308;25.288;2023-02-28T00:32:16;6.50;88.80
27072;DHT22;14613;46.308;25.288;2023-02-28T00:34:44;6.50;88.90
27072;DHT22;14613;46.308;25.288;2023-02-28T00:37:11;6.50;88.90
27072;DHT22;14613;46.308;25.288;2023-02-28T00:39:40;6.50;88.90
27072;DHT22;14613;46.308;25.288;2023-02-28T00:42:07;6.40;88.90
27072;DHT22;14613;46.308;25.288;2023-02-28T00:44:33;6.50;89.00
27072;DHT22;14613;46.308;25.288;2023-02-28T00:46:59;6.40;88.90
27072;DHT22;14613;46.308;25.288;2023-02-28T00:49:27;6.50;88.90
27072;DHT22;14613;46.308;25.288;2023-02-28T00:51:54;6.40;88.90
27072;DHT22;14613;46.308;25.288;2023-02-28T00:54:21;6.40;88.90
27072;DHT22;14613;46.308;25.288;2023-02-28T00:56:47;6.50;88.90
27072;DHT22;14613;46.308;25.288;2023-02-28T00:59:15;6.40;88.90
27072;DHT22;14613;46.308;25.288;2023-02-28T01:01:41;6.40;88.80
27072;DHT22;14613;46.308;25.288;2023-02-28T01:04:07;6.40;88.70
27072;DHT22;14613;46.308;25.288;2023-02-28T01:06:33;6.40;88.70
27072;DHT22;14613;46.308;25.288;2023-02-28T01:09:00;6.40;88.70
27072;DHT22;14613;46.308;25.288;2023-02-28T01:11:26;6.30;88.80
27072;DHT22;14613;46.308;25.288;2023-02-28T01:13:52;6.30;88.90
27072;DHT22;14613;46.308;25.288;2023-02-28T01:16:18;6.30;89.00
27072;DHT22;14613;46.308;25.288;2023-02-28T01:18:44;6.30;88.90
27072;DHT22;14613;46.308;25.288;2023-02-28T01:21:16;6.20;88.90
27072;DHT22;14613;46.308;25.288;2023-02-28T01:23:42;6.20;88.90
27072;DHT22;14613;46.308;25.288;2023-02-28T01:26:20;6.20;88.90
27072;DHT22;14613;46.308;25.288;2023-02-28T01:28:47;6.10;88.90
27072;DHT22;14613;46.308;25.288;2023-02-28T01:31:14;6.10;89.00
27072;DHT22;14613;46.308;25.288;2023-02-28T01:33:39;6.00;89.00
27072;DHT22;14613;46.308;25.288;2023-02-28T01:36:27;6.00;89.30
27072;DHT22;14613;46.308;25.288;2023-02-28T01:38:53;5.90;89.50
27072;DHT22;14613;46.308;25.288;2023-02-28T01:41:25;5.90;89.80
27072;DHT22;14613;46.308;25.288;2023-02-28T01:46:44;5.90;90.00
27072;DHT22;14613;46.308;25.288;2023-02-28T01:49:15;5.90;90.10
27072;DHT22;14613;46.308;25.288;2023-02-28T01:51:44;5.90;90.10
27072;DHT22;14613;46.308;25.288;2023-02-28T01:54:16;5.90;90.00
27072;DHT22;14613;46.308;25.288;2023-02-28T01:56:55;6.00;90.00
27072;DHT22;14613;46.308;25.288;2023-02-28T01:59:37;6.00;90.00
27072;DHT22;14613;46.308;25.288;2023-02-28T02:02:05;6.00;89.80
27072;DHT22;14613;46.308;25.288;2023-02-28T02:04:41;6.00;89.60
27072;DHT22;14613;46.308;25.288;2023-02-28T02:07:10;6.00;89.60
27072;DHT22;14613;46.308;25.288;2023-02-28T02:09:36;6.00;89.60
27072;DHT22;14613;46.308;25.288;2023-02-28T02:12:15;6.00;89.50
27072;DHT22;14613;46.308;25.288;2023-02-28T02:17:43;5.90;89.40
27072;DHT22;14613;46.308;25.288;2023-02-28T02:23:13;5.90;89.20
27072;DHT22;14613;46.308;25.288;2023-02-28T02:25:53;5.90;89.50
27072;DHT22;14613;46.308;25.288;2023-02-28T02:28:42;5.80;89.60
27072;DHT22;14613;46.308;25.288;2023-02-28T02:36:42;5.70;90.00
27072;DHT22;14613;46.308;25.288;2023-02-28T02:39:16;5.70;90.00
27072;DHT22;14613;46.308;25.288;2023-02-28T02:41:51;5.70;90.10
27072;DHT22;14613;46.308;25.288;2023-02-28T02:44:46;5.70;90.00
27072;DHT22;14613;46.308;25.288;2023-02-28T02:47:18;5.70;90.00
27072;DHT22;14613;46.308;25.288;2023-02-28T02:49:50;5.70;90.00
27072;DHT22;14613;46.308;25.288;2023-02-28T02:52:20;5.80;90.00
27072;DHT22;14613;46.308;25.288;2023-02-28T02:54:49;5.80;90.00
27072;DHT22;14613;46.308;25.288;2023-02-28T02:57:22;5.70;90.00
27072;DHT22;14613;46.308;25.288;2023-02-28T02:59:50;5.80;90.00
27072;DHT22;14613;46.308;25.288;2023-02-28T03:02:18;5.80;90.00
27072;DHT22;14613;46.308;25.288;2023-02-28T03:04:59;5.80;90.00
27072;DHT22;14613;46.308;25.288;2023-02-28T03:07:28;5.80;89.90
27072;DHT22;14613;46.308;25.288;2023-02-28T03:09:55;5.80;89.90
27072;DHT22;14613;46.308;25.288;2023-02-28T03:12:25;5.80;90.00
27072;DHT22;14613;46.308;25.288;2023-02-28T03:31:17;5.80;90.00
27072;DHT22;14613;46.308;25.288;2023-02-28T03:33:54;5.80;90.00
27072;DHT22;14613;46.308;25.288;2023-02-28T03:36:30;5.80;90.00
27072;DHT22;14613;46.308;25.288;2023-02-28T03:39:04;5.90;90.00
27072;DHT22;14613;46.308;25.288;2023-02-28T03:41:48;5.90;90.00
27072;DHT22;14613;46.308;25.288;2023-02-28T03:44:57;5.90;90.00
27072;DHT22;14613;46.308;25.288;2023-02-28T03:50:42;5.90;90.00
27072;DHT22;14613;46.308;25.288;2023-02-28T03:53:16;5.90;89.90
27072;DHT22;14613;46.308;25.288;2023-02-28T03:55:45;5.90;90.00
27072;DHT22;14613;46.308;25.288;2023-02-28T03:58:24;5.90;90.00
27072;DHT22;14613;46.308;25.288;2023-02-28T04:01:02;5.90;90.00
27072;DHT22;14613;46.308;25.288;2023-02-28T04:03:37;5.90;89.80
27072;DHT22;14613;46.308;25.288;2023-02-28T04:06:06;5.90;89.90
27072;DHT22;14613;46.308;25.288;2023-02-28T04:08:32;5.90;89.90
27072;DHT22;14613;46.308;25.288;2023-02-28T04:11:05;5.90;89.80
27072;DHT22;14613;46.308;25.288;2023-02-28T04:13:32;5.90;89.90
27072;DHT22;14613;46.308;25.288;2023-02-28T04:15:58;5.90;90.00
27072;DHT22;14613;46.308;25.288;2023-02-28T04:18:24;5.90;89.80
27072;DHT22;14613;46.308;25.288;2023-02-28T04:20:49;6.00;89.80
27072;DHT22;14613;46.308;25.288;2023-02-28T04:23:15;5.90;89.80
27072;DHT22;14613;46.308;25.288;2023-02-28T04:25:41;6.00;89.80
27072;DHT22;14613;46.308;25.288;2023-02-28T04:28:07;6.00;89.80
27072;DHT22;14613;46.308;25.288;2023-02-28T04:30:32;5.90;89.80
27072;DHT22;14613;46.308;25.288;2023-02-28T04:32:59;5.90;89.80
27072;DHT22;14613;46.308;25.288;2023-02-28T04:35:25;5.90;89.80
27072;DHT22;14613;46.308;25.288;2023-02-28T04:37:51;5.90;90.00
27072;DHT22;14613;46.308;25.288;2023-02-28T04:40:17;5.80;90.00
27072;DHT22;14613;46.308;25.288;2023-02-28T04:42:42;5.80;90.00
27072;DHT22;14613;46.308;25.288;2023-02-28T04:45:09;5.80;90.00
27072;DHT22;14613;46.308;25.288;2023-02-28T04:47:36;5.80;90.00
27072;DHT22;14613;46.308;25.288;2023-02-28T04:50:02;5.90;90.00
27072;DHT22;14613;46.308;25.288;2023-02-28T04:52:29;5.80;90.00
27072;DHT22;14613;46.308;25.288;2023-02-28T04:54:55;5.80;89.90
27072;DHT22;14613;46.308;25.288;2023-02-28T04:57:21;5.70;89.90
27072;DHT22;14613;46.308;25.288;2023-02-28T04:59:46;5.60;90.00
27072;DHT22;14613;46.308;25.288;2023-02-28T05:02:12;5.60;90.10
27072;DHT22;14613;46.308;25.288;2023-02-28T05:04:38;5.60;90.10
27072;DHT22;14613;46.308;25.288;2023-02-28T05:07:04;5.60;90.10
27072;DHT22;14613;46.308;25.288;2023-02-28T05:09:29;5.60;90.10
27072;DHT22;14613;46.308;25.288;2023-02-28T05:11:55;5.50;90.00
27072;DHT22;14613;46.308;25.288;2023-02-28T05:14:21;5.60;90.00
27072;DHT22;14613;46.308;25.288;2023-02-28T05:16:47;5.50;90.00
27072;DHT22;14613;46.308;25.288;2023-02-28T05:19:13;5.50;90.00
27072;DHT22;14613;46.308;25.288;2023-02-28T05:21:41;5.50;90.10
27072;DHT22;14613;46.308;25.288;2023-02-28T05:24:13;5.50;90.00
27072;DHT22;14613;46.308;25.288;2023-02-28T05:26:41;5.50;90.00
27072;DHT22;14613;46.308;25.288;2023-02-28T05:29:07;5.50;90.00
27072;DHT22;14613;46.308;25.288;2023-02-28T05:31:34;5.50;90.00
27072;DHT22;14613;46.308;25.288;2023-02-28T05:34:01;5.50;90.00
27072;DHT22;14613;46.308;25.288;2023-02-28T05:36:27;5.50;90.00
27072;DHT22;14613;46.308;25.288;2023-02-28T05:38:53;5.50;90.00
27072;DHT22;14613;46.308;25.288;2023-02-28T05:41:19;5.50;90.00
27072;DHT22;14613;46.308;25.288;2023-02-28T05:43:46;5.50;90.00
27072;DHT22;14613;46.308;25.288;2023-02-28T05:46:12;5.50;90.10
27072;DHT22;14613;46.308;25.288;2023-02-28T05:48:39;5.50;90.00
27072;DHT22;14613;46.308;25.288;2023-02-28T05:51:06;5.50;90.10
27072;DHT22;14613;46.308;25.288;2023-02-28T05:53:32;5.60;90.30
27072;DHT22;14613;46.308;25.288;2023-02-28T05:55:59;5.70;90.50
27072;DHT22;14613;46.308;25.288;2023-02-28T05:58:25;5.80;90.60
27072;DHT22;14613;46.308;25.288;2023-02-28T06:00:54;5.90;90.40
27072;DHT22;14613;46.308;25.288;2023-02-28T06:03:20;6.10;90.50
27072;DHT22;14613;46.308;25.288;2023-02-28T06:05:46;6.20;90.60
27072;DHT22;14613;46.308;25.288;2023-02-28T06:08:12;6.40;90.60
27072;DHT22;14613;46.308;25.288;2023-02-28T06:10:37;6.70;90.50
27072;DHT22;14613;46.308;25.288;2023-02-28T06:13:04;6.80;90.40
27072;DHT22;14613;46.308;25.288;2023-02-28T06:15:30;6.90;90.30
27072;DHT22;14613;46.308;25.288;2023-02-28T06:17:57;7.00;90.20
27072;DHT22;14613;46.308;25.288;2023-02-28T06:20:24;7.00;90.00
27072;DHT22;14613;46.308;25.288;2023-02-28T06:22:50;7.00;89.90
27072;DHT22;14613;46.308;25.288;2023-02-28T06:25:17;7.00;90.00
27072;DHT22;14613;46.308;25.288;2023-02-28T06:27:43;7.10;90.10
27072;DHT22;14613;46.308;25.288;2023-02-28T06:30:10;7.20;90.10
27072;DHT22;14613;46.308;25.288;2023-02-28T06:32:36;7.30;90.70
27072;DHT22;14613;46.308;25.288;2023-02-28T06:35:02;7.50;90.30
27072;DHT22;14613;46.308;25.288;2023-02-28T06:37:30;7.80;90.20
27072;DHT22;14613;46.308;25.288;2023-02-28T06:39:55;8.00;90.10
27072;DHT22;14613;46.308;25.288;2023-02-28T06:42:22;8.30;90.00
27072;DHT22;14613;46.308;25.288;2023-02-28T06:44:51;8.40;89.30
27072;DHT22;14613;46.308;25.288;2023-02-28T06:47:17;8.70;89.00
27072;DHT22;14613;46.308;25.288;2023-02-28T06:49:43;8.80;88.70
27072;DHT22;14613;46.308;25.288;2023-02-28T06:52:10;9.10;88.60
27072;DHT22;14613;46.308;25.288;2023-02-28T06:54:36;9.30;88.40
27072;DHT22;14613;46.308;25.288;2023-02-28T06:57:03;9.50;88.30
27072;DHT22;14613;46.308;25.288;2023-02-28T06:59:28;9.70;88.00
27072;DHT22;14613;46.308;25.288;2023-02-28T07:01:54;10.00;87.20
27072;DHT22;14613;46.308;25.288;2023-02-28T07:04:21;10.10;86.20
27072;DHT22;14613;46.308;25.288;2023-02-28T07:06:47;10.20;85.60
27072;DHT22;14613;46.308;25.288;2023-02-28T07:09:13;10.20;85.40
27072;DHT22;14613;46.308;25.288;2023-02-28T07:11:40;10.30;84.90
27072;DHT22;14613;46.308;25.288;2023-02-28T07:14:06;10.30;84.50
27072;DHT22;14613;46.308;25.288;2023-02-28T07:16:33;10.40;84.30
27072;DHT22;14613;46.308;25.288;2023-02-28T07:18:58;10.50;84.30
27072;DHT22;14613;46.308;25.288;2023-02-28T07:21:24;10.50;83.70
27072;DHT22;14613;46.308;25.288;2023-02-28T07:23:50;10.40;82.90
27072;DHT22;14613;46.308;25.288;2023-02-28T07:26:18;10.30;82.70
27072;DHT22;14613;46.308;25.288;2023-02-28T07:28:46;10.20;83.00
27072;DHT22;14613;46.308;25.288;2023-02-28T07:31:12;10.20;83.00
27072;DHT22;14613;46.308;25.288;2023-02-28T07:33:42;10.20;82.70
27072;DHT22;14613;46.308;25.288;2023-02-28T07:36:14;10.30;82.40
27072;DHT22;14613;46.308;25.288;2023-02-28T07:38:42;10.40;82.20
27072;DHT22;14613;46.308;25.288;2023-02-28T07:41:09;10.40;82.10
27072;DHT22;14613;46.308;25.288;2023-02-28T07:43:35;10.40;81.70
27072;DHT22;14613;46.308;25.288;2023-02-28T07:46:09;10.40;81.20
27072;DHT22;14613;46.308;25.288;2023-02-28T07:48:35;10.50;81.40
27072;DHT22;14613;46.308;25.288;2023-02-28T07:51:02;10.50;80.90
27072;DHT22;14613;46.308;25.288;2023-02-28T07:53:28;10.50;80.90
27072;DHT22;14613;46.308;25.288;2023-02-28T07:55:56;10.60;80.70
27072;DHT22;14613;46.308;25.288;2023-02-28T07:58:22;10.70;80.10
27072;DHT22;14613;46.308;25.288;2023-02-28T08:00:48;10.70;79.90
27072;DHT22;14613;46.308;25.288;2023-02-28T08:03:17;10.80;79.70
27072;DHT22;14613;46.308;25.288;2023-02-28T08:05:43;10.90;79.80
27072;DHT22;14613;46.308;25.288;2023-02-28T08:08:09;11.00;79.60
27072;DHT22;14613;46.308;25.288;2023-02-28T08:10:35;11.00;79.20
27072;DHT22;14613;46.308;25.288;2023-02-28T08:13:01;11.10;79.10
27072;DHT22;14613;46.308;25.288;2023-02-28T08:15:26;11.10;78.80
27072;DHT22;14613;46.308;25.288;2023-02-28T08:17:52;11.20;78.40
27072;DHT22;14613;46.308;25.288;2023-02-28T08:20:18;11.20;78.30
27072;DHT22;14613;46.308;25.288;2023-02-28T08:22:44;11.30;77.90
27072;DHT22;14613;46.308;25.288;2023-02-28T08:25:10;11.40;78.10
27072;DHT22;14613;46.308;25.288;2023-02-28T08:27:36;11.50;77.80
27072;DHT22;14613;46.308;25.288;2023-02-28T08:30:03;11.60;77.50
27072;DHT22;14613;46.308;25.288;2023-02-28T08:32:29;11.70;77.30
27072;DHT22;14613;46.308;25.288;2023-02-28T08:34:55;11.80;77.00
27072;DHT22;14613;46.308;25.288;2023-02-28T08:37:20;11.80;76.80
27072;DHT22;14613;46.308;25.288;2023-02-28T08:39:46;11.80;76.50
27072;DHT22;14613;46.308;25.288;2023-02-28T08:42:12;11.90;76.50
27072;DHT22;14613;46.308;25.288;2023-02-28T08:44:38;11.90;76.70
27072;DHT22;14613;46.308;25.288;2023-02-28T08:47:04;12.00;76.80
27072;DHT22;14613;46.308;25.288;2023-02-28T08:49:30;12.20;76.60
27072;DHT22;14613;46.308;25.288;2023-02-28T08:51:55;12.30;76.10
27072;DHT22;14613;46.308;25.288;2023-02-28T08:54:23;12.30;76.00
27072;DHT22;14613;46.308;25.288;2023-02-28T08:56:49;12.40;76.10
27072;DHT22;14613;46.308;25.288;2023-02-28T08:59:15;12.60;76.20
27072;DHT22;14613;46.308;25.288;2023-02-28T09:01:41;12.70;76.20
27072;DHT22;14613;46.308;25.288;2023-02-28T09:04:09;12.80;76.00
27072;DHT22;14613;46.308;25.288;2023-02-28T09:06:36;13.00;75.80
27072;DHT22;14613;46.308;25.288;2023-02-28T09:09:02;13.10;75.60
27072;DHT22;14613;46.308;25.288;2023-02-28T09:11:31;13.20;75.30
27072;DHT22;14613;46.308;25.288;2023-02-28T09:13:57;13.20;75.00
27072;DHT22;14613;46.308;25.288;2023-02-28T09:16:24;13.30;75.00
27072;DHT22;14613;46.308;25.288;2023-02-28T09:18:50;13.30;74.80
27072;DHT22;14613;46.308;25.288;2023-02-28T09:21:18;13.30;74.60
27072;DHT22;14613;46.308;25.288;2023-02-28T09:23:46;13.30;74.60
27072;DHT22;14613;46.308;25.288;2023-02-28T09:26:23;13.30;74.40
27072;DHT22;14613;46.308;25.288;2023-02-28T09:28:49;13.30;74.00
27072;DHT22;14613;46.308;25.288;2023-02-28T09:31:18;13.30;74.30
27072;DHT22;14613;46.308;25.288;2023-02-28T09:33:53;13.30;74.20
27072;DHT22;14613;46.308;25.288;2023-02-28T09:36:20;13.20;74.20
27072;DHT22;14613;46.308;25.288;2023-02-28T09:38:46;13.10;73.70
27072;DHT22;14613;46.308;25.288;2023-02-28T09:41:20;13.10;73.90
27072;DHT22;14613;46.308;25.288;2023-02-28T09:43:51;13.10;73.90
27072;DHT22;14613;46.308;25.288;2023-02-28T09:49:00;13.20;73.80
27072;DHT22;14613;46.308;25.288;2023-02-28T09:53:56;13.40;73.90
27072;DHT22;14613;46.308;25.288;2023-02-28T09:56:26;13.50;74.00
27072;DHT22;14613;46.308;25.288;2023-02-28T09:59:16;13.60;74.20
27072;DHT22;14613;46.308;25.288;2023-02-28T10:04:58;13.90;73.40
27072;DHT22;14613;46.308;25.288;2023-02-28T10:08:00;13.90;73.00
27072;DHT22;14613;46.308;25.288;2023-02-28T10:10:36;13.90;73.10
27072;DHT22;14613;46.308;25.288;2023-02-28T10:15:51;14.20;73.20
27072;DHT22;14613;46.308;25.288;2023-02-28T10:18:23;14.30;72.90
27072;DHT22;14613;46.308;25.288;2023-02-28T10:20:50;14.40;72.50
27072;DHT22;14613;46.308;25.288;2023-02-28T10:23:37;14.50;72.40
27072;DHT22;14613;46.308;25.288;2023-02-28T10:26:14;14.60;72.10
27072;DHT22;14613;46.308;25.288;2023-02-28T10:28:42;14.60;71.30
27072;DHT22;14613;46.308;25.288;2023-02-28T10:31:15;14.60;70.70
27072;DHT22;14613;46.308;25.288;2023-02-28T10:33:43;14.40;70.80
27072;DHT22;14613;46.308;25.288;2023-02-28T10:36:14;14.40;70.70
27072;DHT22;14613;46.308;25.288;2023-02-28T10:38:40;14.30;71.10
27072;DHT22;14613;46.308;25.288;2023-02-28T10:41:09;14.30;71.40
27072;DHT22;14613;46.308;25.288;2023-02-28T10:43:37;14.40;70.90
27072;DHT22;14613;46.308;25.288;2023-02-28T10:46:04;14.40;70.60
27072;DHT22;14613;46.308;25.288;2023-02-28T10:51:12;14.40;70.90
27072;DHT22;14613;46.308;25.288;2023-02-28T10:53:51;14.40;70.30
27072;DHT22;14613;46.308;25.288;2023-02-28T10:56:22;14.40;69.80
27072;DHT22;14613;46.308;25.288;2023-02-28T10:58:55;14.40;70.30
27072;DHT22;14613;46.308;25.288;2023-02-28T11:01:25;14.40;70.50
27072;DHT22;14613;46.308;25.288;2023-02-28T11:03:59;14.60;70.50
27072;DHT22;14613;46.308;25.288;2023-02-28T11:06:35;14.70;70.10
27072;DHT22;14613;46.308;25.288;2023-02-28T11:09:21;14.80;70.20
27072;DHT22;14613;46.308;25.288;2023-02-28T11:11:49;14.90;70.10
27072;DHT22;14613;46.308;25.288;2023-02-28T11:14:24;15.10;69.90
27072;DHT22;14613;46.308;25.288;2023-02-28T11:16:51;15.10;69.40
27072;DHT22;14613;46.308;25.288;2023-02-28T11:19:22;15.10;69.30
27072;DHT22;14613;46.308;25.288;2023-02-28T11:22:00;15.20;69.40
27072;DHT22;14613;46.308;25.288;2023-02-28T11:24:29;15.30;69.50
27072;DHT22;14613;46.308;25.288;2023-02-28T11:26:56;15.30;69.70
27072;DHT22;14613;46.308;25.288;2023-02-28T11:29:25;15.40;70.00
27072;DHT22;14613;46.308;25.288;2023-02-28T11:32:05;15.40;69.90
27072;DHT22;14613;46.308;25.288;2023-02-28T11:34:32;15.60;69.80
27072;DHT22;14613;46.308;25.288;2023-02-28T11:36:59;15.60;69.40
27072;DHT22;14613;46.308;25.288;2023-02-28T11:39:26;15.60;69.20
27072;DHT22;14613;46.308;25.288;2023-02-28T11:42:49;15.60;69.20
27072;DHT22;14613;46.308;25.288;2023-02-28T11:45:26;15.60;69.00
27072;DHT22;14613;46.308;25.288;2023-02-28T11:48:08;15.60;68.80
27072;DHT22;14613;46.308;25.288;2023-02-28T11:53:50;15.60;68.80
27072;DHT22;14613;46.308;25.288;2023-02-28T12:07:22;15.60;68.80
27072;DHT22;14613;46.308;25.288;2023-02-28T12:10:04;15.60;68.80
27072;DHT22;14613;46.308;25.288;2023-02-28T12:15:40;15.50;68.40
27072;DHT22;14613;46.308;25.288;2023-02-28T12:27:10;14.90;68.70
27072;DHT22;14613;46.308;25.288;2023-02-28T12:30:34;14.70;68.90
27072;DHT22;14613;46.308;25.288;2023-02-28T12:32:41;14.60;69.10
27072;DHT22;14613;46.308;25.288;2023-02-28T12:37:50;14.30;69.10
27072;DHT22;14613;46.308;25.288;2023-02-28T12:40:25;14.20;69.20
27072;DHT22;14613;46.308;25.288;2023-02-28T12:42:56;14.00;69.30
27072;DHT22;14613;46.308;25.288;2023-02-28T12:45:26;13.80;69.30
27072;DHT22;14613;46.308;25.288;2023-02-28T12:47:59;13.60;69.60
27072;DHT22;14613;46.308;25.288;2023-02-28T12:50:27;13.50;70.00
27072;DHT22;14613;46.308;25.288;2023-02-28T12:53:23;13.50;70.30
27072;DHT22;14613;46.308;25.288;2023-02-28T12:56:30;13.40;70.30
27072;DHT22;14613;46.308;25.288;2023-02-28T13:04:54;13.30;70.50
27072;DHT22;14613;46.308;25.288;2023-02-28T13:10:10;13.10;70.50
27072;DHT22;14613;46.308;25.288;2023-02-28T13:12:36;13.10;70.70
27072;DHT22;14613;46.308;25.288;2023-02-28T13:15:16;13.10;70.90
27072;DHT22;14613;46.308;25.288;2023-02-28T13:17:52;13.10;70.90
27072;DHT22;14613;46.308;25.288;2023-02-28T13:20:29;13.10;70.90
27072;DHT22;14613;46.308;25.288;2023-02-28T13:22:56;13.10;71.00
27072;DHT22;14613;46.308;25.288;2023-02-28T13:27:50;13.00;71.00
27072;DHT22;14613;46.308;25.288;2023-02-28T13:35:46;12.90;71.50
27072;DHT22;14613;46.308;25.288;2023-02-28T13:38:17;13.00;71.40
27072;DHT22;14613;46.308;25.288;2023-02-28T13:40:43;13.10;71.30
27072;DHT22;14613;46.308;25.288;2023-02-28T13:43:09;13.10;71.30
27072;DHT22;14613;46.308;25.288;2023-02-28T13:45:35;13.10;71.30
27072;DHT22;14613;46.308;25.288;2023-02-28T13:48:17;13.10;71.20
27072;DHT22;14613;46.308;25.288;2023-02-28T13:50:44;13.00;71.30
27072;DHT22;14613;46.308;25.288;2023-02-28T13:55:46;13.00;71.80
27072;DHT22;14613;46.308;25.288;2023-02-28T14:06:51;13.20;71.80
27072;DHT22;14613;46.308;25.288;2023-02-28T14:09:29;13.40;71.70
27072;DHT22;14613;46.308;25.288;2023-02-28T14:11:56;13.50;71.50
27072;DHT22;14613;46.308;25.288;2023-02-28T14:17:05;13.60;70.70
27072;DHT22;14613;46.308;25.288;2023-02-28T14:19:34;13.50;70.90
27072;DHT22;14613;46.308;25.288;2023-02-28T14:27:45;13.20;70.90
27072;DHT22;14613;46.308;25.288;2023-02-28T14:33:22;12.90;71.30
27072;DHT22;14613;46.308;25.288;2023-02-28T14:36:20;12.80;71.50
27072;DHT22;14613;46.308;25.288;2023-02-28T14:39:10;12.70;71.60
27072;DHT22;14613;46.308;25.288;2023-02-28T14:41:39;12.70;71.80
27072;DHT22;14613;46.308;25.288;2023-02-28T14:44:26;12.60;71.80
27072;DHT22;14613;46.308;25.288;2023-02-28T14:46:54;12.60;71.90
27072;DHT22;14613;46.308;25.288;2023-02-28T14:49:46;12.60;71.80
27072;DHT22;14613;46.308;25.288;2023-02-28T14:54:42;12.70;71.70
27072;DHT22;14613;46.308;25.288;2023-02-28T15:00:28;12.50;71.60
27072;DHT22;14613;46.308;25.288;2023-02-28T15:02:55;12.30;71.90
27072;DHT22;14613;46.308;25.288;2023-02-28T15:08:25;12.20;72.40
27072;DHT22;14613;46.308;25.288;2023-02-28T15:11:00;12.10;72.50
27072;DHT22;14613;46.308;25.288;2023-02-28T15:13:47;12.10;72.60
27072;DHT22;14613;46.308;25.288;2023-02-28T15:16:18;12.10;72.70
27072;DHT22;14613;46.308;25.288;2023-02-28T15:21:34;12.20;72.50
27072;DHT22;14613;46.308;25.288;2023-02-28T15:24:13;12.20;72.40
27072;DHT22;14613;46.308;25.288;2023-02-28T15:26:42;12.20;72.50
27072;DHT22;14613;46.308;25.288;2023-02-28T15:29:19;12.20;72.50
27072;DHT22;14613;46.308;25.288;2023-02-28T15:32:20;12.20;72.50
27072;DHT22;14613;46.308;25.288;2023-02-28T15:34:36;12.30;72.50
27072;DHT22;14613;46.308;25.288;2023-02-28T15:37:38;12.30;72.50
27072;DHT22;14613;46.308;25.288;2023-02-28T15:40:17;12.30;72.40
27072;DHT22;14613;46.308;25.288;2023-02-28T15:43:18;12.30;72.20
27072;DHT22;14613;46.308;25.288;2023-02-28T15:45:49;12.40;72.30
27072;DHT22;14613;46.308;25.288;2023-02-28T15:50:49;12.40;72.40
27072;DHT22;14613;46.308;25.288;2023-02-28T15:53:18;12.30;72.30
27072;DHT22;14613;46.308;25.288;2023-02-28T15:55:45;12.30;72.40
27072;DHT22;14613;46.308;25.288;2023-02-28T15:58:18;12.30;72.40
27072;DHT22;14613;46.308;25.288;2023-02-28T16:00:44;12.20;72.50
27072;DHT22;14613;46.308;25.288;2023-02-28T16:03:32;12.20;72.50
27072;DHT22;14613;46.308;25.288;2023-02-28T16:08:55;12.10;72.60
27072;DHT22;14613;46.308;25.288;2023-02-28T16:11:21;12.10;72.60
27072;DHT22;14613;46.308;25.288;2023-02-28T16:13:48;12.00;72.70
27072;DHT22;14613;46.308;25.288;2023-02-28T16:16:18;12.00;72.90
27072;DHT22;14613;46.308;25.288;2023-02-28T16:18:44;12.00;72.90
27072;DHT22;14613;46.308;25.288;2023-02-28T16:21:10;11.90;72.90
27072;DHT22;14613;46.308;25.288;2023-02-28T16:23:36;11.90;72.90
27072;DHT22;14613;46.308;25.288;2023-02-28T16:26:03;11.90;72.90
27072;DHT22;14613;46.308;25.288;2023-02-28T16:28:34;11.80;72.90
27072;DHT22;14613;46.308;25.288;2023-02-28T16:31:01;11.80;73.00
27072;DHT22;14613;46.308;25.288;2023-02-28T16:33:34;11.70;73.00
27072;DHT22;14613;46.308;25.288;2023-02-28T16:36:00;11.60;73.00
27072;DHT22;14613;46.308;25.288;2023-02-28T16:38:26;11.50;73.10
27072;DHT22;14613;46.308;25.288;2023-02-28T16:40:55;11.50;73.30
27072;DHT22;14613;46.308;25.288;2023-02-28T16:43:24;11.40;73.40
27072;DHT22;14613;46.308;25.288;2023-02-28T16:45:56;11.30;73.50
27072;DHT22;14613;46.308;25.288;2023-02-28T16:48:23;11.20;73.60
27072;DHT22;14613;46.308;25.288;2023-02-28T16:50:51;11.10;73.80
27072;DHT22;14613;46.308;25.288;2023-02-28T16:53:16;10.90;73.80
27072;DHT22;14613;46.308;25.288;2023-02-28T16:55:42;10.90;74.00
27072;DHT22;14613;46.308;25.288;2023-02-28T16:58:13;10.80;74.10
27072;DHT22;14613;46.308;25.288;2023-02-28T17:00:40;10.80;74.10
27072;DHT22;14613;46.308;25.288;2023-02-28T17:03:21;10.80;74.30
27072;DHT22;14613;46.308;25.288;2023-02-28T17:05:47;10.80;74.30
27072;DHT22;14613;46.308;25.288;2023-02-28T17:08:13;10.80;74.30
27072;DHT22;14613;46.308;25.288;2023-02-28T17:10:39;10.70;74.30
27072;DHT22;14613;46.308;25.288;2023-02-28T17:13:05;10.70;74.30
27072;DHT22;14613;46.308;25.288;2023-02-28T17:15:33;10.60;74.30
27072;DHT22;14613;46.308;25.288;2023-02-28T17:17:59;10.60;74.40
27072;DHT22;14613;46.308;25.288;2023-02-28T17:20:25;10.50;74.40
27072;DHT22;14613;46.308;25.288;2023-02-28T17:22:54;10.40;75.30
27072;DHT22;14613;46.308;25.288;2023-02-28T17:25:20;10.40;74.60
27072;DHT22;14613;46.308;25.288;2023-02-28T17:27:47;10.30;74.50
27072;DHT22;14613;46.308;25.288;2023-02-28T17:32:46;10.10;74.90
27072;DHT22;14613;46.308;25.288;2023-02-28T17:35:12;10.00;75.00
27072;DHT22;14613;46.308;25.288;2023-02-28T17:37:38;10.00;75.10
27072;DHT22;14613;46.308;25.288;2023-02-28T17:40:05;10.00;75.10
27072;DHT22;14613;46.308;25.288;2023-02-28T17:42:31;10.00;75.20
27072;DHT22;14613;46.308;25.288;2023-02-28T17:44:57;10.00;75.20
27072;DHT22;14613;46.308;25.288;2023-02-28T17:47:22;10.00;75.20
27072;DHT22;14613;46.308;25.288;2023-02-28T17:49:48;9.90;75.10
27072;DHT22;14613;46.308;25.288;2023-02-28T17:52:14;9.80;75.10
27072;DHT22;14613;46.308;25.288;2023-02-28T17:54:40;9.80;75.10